createdAt,value
2022-11-05T00:01:50.557Z,15.84
2022-11-05T00:04:36.956Z,15.84
2022-11-05T00:07:30.387Z,15.87
2022-11-05T00:10:03.853Z,15.87
2022-11-05T00:12:52.082Z,15.90
2022-11-05T00:15:37.771Z,15.90
2022-11-05T00:18:06.353Z,15.90
2022-11-05T00:20:34.840Z,15.93
2022-11-05T00:23:23.637Z,15.96
2022-11-05T00:26:14.131Z,15.96
2022-11-05T00:28:46.001Z,15.98
2022-11-05T00:31:15.561Z,16.00
2022-11-05T00:33:45.083Z,16.00
2022-11-05T00:36:13.443Z,16.00
2022-11-05T00:38:41.998Z,16.02
2022-11-05T00:41:11.657Z,16.00
2022-11-05T00:43:57.338Z,15.97
2022-11-05T00:46:27.275Z,15.90
2022-11-05T00:49:15.906Z,15.92
2022-11-05T00:51:44.075Z,15.86
2022-11-05T00:54:12.459Z,15.84
2022-11-05T00:56:40.856Z,15.80
2022-11-05T00:59:09.014Z,15.80
2022-11-05T01:01:39.411Z,15.78
2022-11-05T01:04:07.664Z,15.76
2022-11-05T01:06:35.804Z,15.78
2022-11-05T01:09:04.026Z,15.78
2022-11-05T01:11:35.433Z,15.79
2022-11-05T01:14:06.368Z,15.77
2022-11-05T01:16:34.616Z,15.76
2022-11-05T01:19:05.672Z,15.77
2022-11-05T01:21:34.623Z,15.76
2022-11-05T01:24:03.569Z,15.81
2022-11-05T01:26:32.308Z,15.78
2022-11-05T01:29:01.832Z,15.78
2022-11-05T01:31:30.126Z,15.78
2022-11-05T01:33:58.690Z,15.77
2022-11-05T01:36:28.313Z,15.77
2022-11-05T01:38:56.878Z,15.80
2022-11-05T01:41:24.992Z,15.81
2022-11-05T01:43:55.161Z,15.83
2022-11-05T01:46:30.034Z,15.83
2022-11-05T01:49:03.362Z,15.85
2022-11-05T01:51:33.538Z,15.87
2022-11-05T01:54:04.366Z,15.84
2022-11-05T01:56:38.105Z,15.86
2022-11-05T01:59:12.987Z,15.86
2022-11-05T02:01:41.227Z,15.84
2022-11-05T02:04:12.861Z,15.84
2022-11-05T02:06:46.477Z,15.84
2022-11-05T02:09:19.429Z,15.81
2022-11-05T02:11:49.555Z,15.83
2022-11-05T02:14:18.407Z,15.83
2022-11-05T02:16:52.320Z,15.82
2022-11-05T02:19:53.297Z,15.81
2022-11-05T02:22:48.916Z,15.82
2022-11-05T02:25:37.221Z,15.83
2022-11-05T02:28:30.106Z,15.88
2022-11-05T02:31:06.175Z,15.86
2022-11-05T02:33:43.114Z,15.91
2022-11-05T02:36:28.505Z,15.94
2022-11-05T02:39:07.240Z,15.95
2022-11-05T02:41:44.670Z,15.96
2022-11-05T02:44:23.442Z,15.96
2022-11-05T02:47:00.015Z,15.96
2022-11-05T02:49:39.480Z,15.94
2022-11-05T02:52:14.833Z,15.92
2022-11-05T02:54:49.013Z,15.91
2022-11-05T02:57:20.581Z,15.85
2022-11-05T02:59:48.821Z,15.81
2022-11-05T03:02:18.850Z,15.81
2022-11-05T03:04:47.420Z,15.80
2022-11-05T03:07:29.737Z,15.82
2022-11-05T03:10:20.915Z,15.85
2022-11-05T03:13:01.046Z,15.87
2022-11-05T03:15:41.885Z,15.92
2022-11-05T03:18:16.196Z,15.93
2022-11-05T03:20:50.822Z,15.96
2022-11-05T03:23:26.858Z,15.99
2022-11-05T03:26:00.699Z,15.98
2022-11-05T03:28:32.475Z,15.99
2022-11-05T03:31:02.848Z,16.01
2022-11-05T03:33:36.836Z,16.04
2022-11-05T03:36:11.669Z,16.07
2022-11-05T03:38:45.063Z,16.05
2022-11-05T03:41:17.348Z,16.08
2022-11-05T03:43:50.805Z,16.08
2022-11-05T03:46:23.009Z,16.09
2022-11-05T03:48:56.313Z,16.13
2022-11-05T03:51:34.232Z,16.13
2022-11-05T03:54:05.511Z,16.14
2022-11-05T03:56:39.771Z,16.11
2022-11-05T03:59:10.306Z,16.13
2022-11-05T04:01:39.104Z,16.13
2022-11-05T04:04:09.736Z,16.15
2022-11-05T04:06:55.386Z,16.13
2022-11-05T04:09:40.989Z,16.08
2022-11-05T04:12:28.091Z,16.10
2022-11-05T04:14:56.245Z,16.08
2022-11-05T04:17:23.414Z,16.07
2022-11-05T04:20:10.534Z,16.05
2022-11-05T04:22:56.322Z,15.99
2022-11-05T04:25:24.502Z,15.96
2022-11-05T04:27:52.712Z,16.00
2022-11-05T04:30:20.616Z,15.96
2022-11-05T04:33:03.606Z,15.93
2022-11-05T04:35:35.527Z,15.90
2022-11-05T04:38:04.919Z,15.90
2022-11-05T04:40:32.983Z,15.90
2022-11-05T04:43:01.559Z,15.94
2022-11-05T04:45:31.376Z,15.93
2022-11-05T04:47:59.480Z,15.91
2022-11-05T04:50:27.864Z,15.92
2022-11-05T04:52:57.417Z,15.93
2022-11-05T04:55:25.736Z,15.93
2022-11-05T04:57:55.322Z,15.97
2022-11-05T05:00:25.444Z,15.98
2022-11-05T05:02:53.531Z,15.98
2022-11-05T05:05:23.389Z,15.99
2022-11-05T05:07:51.503Z,16.01
2022-11-05T05:10:21.131Z,16.06
2022-11-05T05:12:49.291Z,16.11
2022-11-05T05:15:17.559Z,16.15
2022-11-05T05:17:45.652Z,16.17
2022-11-05T05:20:31.097Z,16.21
2022-11-05T05:22:59.093Z,16.22
2022-11-05T05:25:29.005Z,16.22
2022-11-05T05:27:59.078Z,16.21
2022-11-05T05:30:27.507Z,16.21
2022-11-05T05:32:55.555Z,16.24
2022-11-05T05:35:23.599Z,16.23
2022-11-05T05:37:56.223Z,16.22
2022-11-05T05:40:25.440Z,16.22
2022-11-05T05:42:56.545Z,16.26
2022-11-05T05:45:24.848Z,16.21
2022-11-05T05:47:53.225Z,16.23
2022-11-05T05:50:21.264Z,16.25
2022-11-05T05:52:49.364Z,16.24
2022-11-05T05:55:20.710Z,16.23
2022-11-05T05:57:48.862Z,16.21
2022-11-05T06:00:18.786Z,16.20
2022-11-05T06:02:47.275Z,16.17
2022-11-05T06:05:15.635Z,16.20
2022-11-05T06:07:43.729Z,16.18
2022-11-05T06:10:11.830Z,16.16
2022-11-05T06:12:40.004Z,16.18
2022-11-05T06:15:08.997Z,16.16
2022-11-05T06:17:38.553Z,16.18
2022-11-05T06:20:09.044Z,16.16
2022-11-05T06:22:37.164Z,16.15
2022-11-05T06:25:06.222Z,16.14
2022-11-05T06:27:34.830Z,16.18
2022-11-05T06:30:03.031Z,16.14
2022-11-05T06:32:31.944Z,16.22
2022-11-05T06:35:01.641Z,16.26
2022-11-05T06:37:29.807Z,16.24
2022-11-05T06:39:59.079Z,16.25
2022-11-05T06:42:28.263Z,16.25
2022-11-05T06:44:56.264Z,16.28
2022-11-05T06:47:24.347Z,16.29
2022-11-05T06:49:52.433Z,16.30
2022-11-05T06:52:22.465Z,16.31
2022-11-05T06:54:50.788Z,16.35
2022-11-05T06:57:19.126Z,16.34
2022-11-05T06:59:47.287Z,16.34
2022-11-05T07:02:15.722Z,16.37
2022-11-05T07:04:43.840Z,16.37
2022-11-05T07:07:11.949Z,16.38
2022-11-05T07:09:43.295Z,16.36
2022-11-05T07:12:11.260Z,16.33
2022-11-05T07:14:39.485Z,16.34
2022-11-05T07:17:08.254Z,16.31
2022-11-05T07:19:36.458Z,16.30
2022-11-05T07:22:04.776Z,16.28
2022-11-05T07:24:32.905Z,16.30
2022-11-05T07:27:02.362Z,16.30
2022-11-05T07:29:30.576Z,16.30
2022-11-05T07:31:58.636Z,16.33
2022-11-05T07:34:29.351Z,16.31
2022-11-05T07:36:57.410Z,16.32
2022-11-05T07:39:25.764Z,16.34
2022-11-05T07:41:55.094Z,16.33
2022-11-05T07:44:24.728Z,16.34
2022-11-05T07:46:53.116Z,16.36
2022-11-05T07:49:21.103Z,16.39
2022-11-05T07:51:49.209Z,16.38
2022-11-05T07:54:17.354Z,16.37
2022-11-05T07:56:48.240Z,16.42
2022-11-05T07:59:16.485Z,16.40
2022-11-05T08:01:46.109Z,16.44
2022-11-05T08:04:14.336Z,16.46
2022-11-05T08:06:42.563Z,16.44
2022-11-05T08:09:10.952Z,16.45
2022-11-05T08:11:39.039Z,16.49
2022-11-05T08:14:09.977Z,16.49
2022-11-05T08:16:40.943Z,16.52
2022-11-05T08:19:10.694Z,16.58
2022-11-05T08:21:38.856Z,16.61
2022-11-05T08:24:10.242Z,16.67
2022-11-05T08:26:38.613Z,16.72
2022-11-05T08:29:07.510Z,16.77
2022-11-05T08:31:37.230Z,16.73
2022-11-05T08:34:05.389Z,16.70
2022-11-05T08:36:36.434Z,16.67
2022-11-05T08:39:04.787Z,16.63
2022-11-05T08:41:33.895Z,16.63
2022-11-05T08:44:06.859Z,16.70
2022-11-05T08:46:41.395Z,16.72
2022-11-05T08:49:10.311Z,16.78
2022-11-05T08:51:40.143Z,16.80
2022-11-05T08:54:08.495Z,16.82
2022-11-05T08:56:36.805Z,16.78
2022-11-05T08:59:04.920Z,16.78
2022-11-05T09:01:34.603Z,16.79
2022-11-05T09:04:02.755Z,16.76
2022-11-05T09:06:30.840Z,16.80
2022-11-05T09:09:00.249Z,16.86
2022-11-05T09:11:49.718Z,16.85
2022-11-05T09:14:16.528Z,16.91
2022-11-05T09:16:44.534Z,16.93
2022-11-05T09:21:55.179Z,17.03
2022-11-05T09:24:25.069Z,17.07
2022-11-05T09:26:53.648Z,17.11
2022-11-05T09:29:21.916Z,17.16
2022-11-05T09:31:50.195Z,17.23
2022-11-05T09:34:18.264Z,17.25
2022-11-05T09:36:46.474Z,17.26
2022-11-05T09:39:14.818Z,17.32
2022-11-05T09:41:45.284Z,17.36
2022-11-05T09:44:17.082Z,17.40
2022-11-05T09:46:47.948Z,17.39
2022-11-05T09:49:25.806Z,17.38
2022-11-05T09:51:55.459Z,17.36
2022-11-05T09:54:26.067Z,17.42
2022-11-05T09:56:57.014Z,17.36
2022-11-05T09:59:29.642Z,17.37
2022-11-05T10:02:04.319Z,17.31
2022-11-05T10:04:35.749Z,17.30
2022-11-05T10:07:07.765Z,17.28
2022-11-05T10:09:40.215Z,17.28
2022-11-05T10:12:17.977Z,17.28
2022-11-05T10:14:52.890Z,17.28
2022-11-05T10:17:26.098Z,17.29
2022-11-05T10:20:01.840Z,17.32
2022-11-05T10:25:19.942Z,17.35
2022-11-05T10:31:22.205Z,17.41
2022-11-05T10:34:15.870Z,17.43
2022-11-05T10:37:48.802Z,17.41
2022-11-05T10:40:56.265Z,17.42
2022-11-05T10:43:33.798Z,17.42
2022-11-05T10:47:09.699Z,17.44
2022-11-05T10:49:53.715Z,17.46
2022-11-05T10:52:25.561Z,17.49
2022-11-05T10:55:03.352Z,17.49
2022-11-05T10:57:36.563Z,17.50
2022-11-05T11:00:28.571Z,17.51
2022-11-05T11:03:01.468Z,17.53
2022-11-05T11:05:32.901Z,17.53
2022-11-05T11:08:18.823Z,17.52
2022-11-05T11:10:53.285Z,17.54
2022-11-05T11:13:23.642Z,17.58
2022-11-05T11:15:52.009Z,17.58
2022-11-05T11:18:32.465Z,17.60
2022-11-05T11:21:08.788Z,17.65
2022-11-05T11:23:41.229Z,17.65
2022-11-05T11:26:13.263Z,17.65
2022-11-05T11:28:57.867Z,17.69
2022-11-05T11:31:31.213Z,17.70
2022-11-05T11:34:05.961Z,17.71
2022-11-05T11:37:20.752Z,17.75
2022-11-05T11:39:53.774Z,17.76
2022-11-05T11:42:49.092Z,17.80
2022-11-05T11:45:25.563Z,17.83
2022-11-05T11:47:57.682Z,17.88
2022-11-05T11:50:38.912Z,17.85
2022-11-05T11:53:36.832Z,17.85
2022-11-05T11:56:19.747Z,17.85
2022-11-05T11:58:57.146Z,17.89
2022-11-05T12:01:43.923Z,17.87
2022-11-05T12:04:24.453Z,17.96
2022-11-05T12:07:03.581Z,18.01
2022-11-05T12:10:00.785Z,18.07
2022-11-05T12:12:38.232Z,18.14
2022-11-05T12:15:49.180Z,18.18
2022-11-05T12:18:26.326Z,18.19
2022-11-05T12:21:34.847Z,18.21
2022-11-05T12:24:27.560Z,18.25
2022-11-05T12:27:16.048Z,18.26
2022-11-05T12:29:54.872Z,18.30
2022-11-05T12:32:57.509Z,18.34
2022-11-05T12:35:47.435Z,18.35
2022-11-05T12:38:45.767Z,18.33
2022-11-05T12:41:27.044Z,18.38
2022-11-05T12:44:31.272Z,18.36
2022-11-05T12:47:14.847Z,18.40
2022-11-05T12:50:01.358Z,18.38
2022-11-05T12:52:55.695Z,18.41
2022-11-05T12:55:26.643Z,18.45
2022-11-05T12:57:59.379Z,18.45
2022-11-05T13:00:29.264Z,18.49
2022-11-05T13:03:09.829Z,18.50
2022-11-05T13:05:43.998Z,18.50
2022-11-05T13:08:17.328Z,18.51
2022-11-05T13:10:52.127Z,18.54
2022-11-05T13:13:28.863Z,18.51
2022-11-05T13:16:01.691Z,18.58
2022-11-05T13:18:34.402Z,18.60
2022-11-05T13:21:09.197Z,18.66
2022-11-05T13:23:43.042Z,18.68
2022-11-05T13:26:19.984Z,18.75
2022-11-05T13:28:55.201Z,18.77
2022-11-05T13:31:50.752Z,18.84
2022-11-05T13:34:24.315Z,18.89
2022-11-05T13:37:15.353Z,18.89
2022-11-05T13:39:53.099Z,18.94
2022-11-05T13:42:53.330Z,19.01
2022-11-05T13:46:05.945Z,19.04
2022-11-05T13:49:00.088Z,19.11
2022-11-05T13:51:46.643Z,19.16
2022-11-05T13:54:46.261Z,19.18
2022-11-05T13:57:51.700Z,19.21
2022-11-05T14:00:22.093Z,19.17
2022-11-05T14:02:53.673Z,19.15
2022-11-05T14:05:28.587Z,19.12
2022-11-05T14:07:59.013Z,19.16
2022-11-05T14:10:38.467Z,19.09
2022-11-05T14:13:25.000Z,19.04
2022-11-05T14:16:07.165Z,19.01
2022-11-05T14:18:58.527Z,18.96
2022-11-05T14:22:14.672Z,18.90
2022-11-05T14:24:45.860Z,18.82
2022-11-05T14:27:58.324Z,18.74
2022-11-05T14:34:02.436Z,18.87
2022-11-05T14:36:46.845Z,18.89
2022-11-05T14:39:35.108Z,18.92
2022-11-05T14:42:11.762Z,18.93
2022-11-05T14:45:22.236Z,18.97
2022-11-05T14:51:41.685Z,19.07
2022-11-05T14:54:34.269Z,19.08
2022-11-05T14:57:05.640Z,19.10
2022-11-05T14:59:53.240Z,19.10
2022-11-05T15:02:25.479Z,19.02
2022-11-05T15:05:35.261Z,19.02
2022-11-05T15:08:35.308Z,19.00
2022-11-05T15:11:23.321Z,18.99
2022-11-05T15:14:04.209Z,18.91
2022-11-05T15:16:37.298Z,18.95
2022-11-05T15:19:06.661Z,18.94
2022-11-05T15:21:37.985Z,19.01
2022-11-05T15:24:11.063Z,19.06
2022-11-05T15:26:49.333Z,19.15
2022-11-05T15:29:20.197Z,19.19
2022-11-05T15:31:56.255Z,19.24
2022-11-05T15:34:29.204Z,19.29
2022-11-05T15:43:42.698Z,19.31
2022-11-05T15:46:32.527Z,19.35
2022-11-05T15:49:04.428Z,19.38
2022-11-05T15:51:33.387Z,19.43
2022-11-05T15:57:40.276Z,19.41
2022-11-05T16:00:18.185Z,19.38
2022-11-05T16:02:58.105Z,19.31
2022-11-05T16:05:28.556Z,19.19
2022-11-05T16:08:00.893Z,19.06
2022-11-05T16:10:51.910Z,18.94
2022-11-05T16:13:36.987Z,18.82
2022-11-05T16:16:08.025Z,18.74
2022-11-05T16:18:39.035Z,18.69
2022-11-05T16:21:09.374Z,18.59
2022-11-05T16:29:37.991Z,18.23
2022-11-05T16:32:16.685Z,18.11
2022-11-05T16:34:56.998Z,18.06
2022-11-05T16:37:46.337Z,18.00
2022-11-05T16:40:27.262Z,17.86
2022-11-05T16:42:56.357Z,17.80
2022-11-05T16:45:29.443Z,17.73
2022-11-05T16:47:58.299Z,17.71
2022-11-05T16:50:28.918Z,17.69
2022-11-05T16:53:04.970Z,17.67
2022-11-05T16:55:52.466Z,17.67
2022-11-05T16:58:23.500Z,17.63
2022-11-05T17:00:57.622Z,17.59
2022-11-05T17:21:04.337Z,17.54
2022-11-05T17:24:31.662Z,17.44
2022-11-05T17:27:04.283Z,17.43
2022-11-05T17:29:40.057Z,17.42
2022-11-05T17:32:17.067Z,17.36
2022-11-05T17:34:48.270Z,17.33
2022-11-05T17:37:34.124Z,17.28
2022-11-05T17:40:13.867Z,17.29
2022-11-05T17:42:43.000Z,17.24
2022-11-05T17:45:17.606Z,17.23
2022-11-05T17:47:54.887Z,17.17
2022-11-05T18:02:39.532Z,17.20
2022-11-05T18:05:09.188Z,17.21
2022-11-05T18:07:38.287Z,17.18
2022-11-05T18:10:10.986Z,17.14
2022-11-05T18:15:49.537Z,17.02
2022-11-05T18:18:24.304Z,16.92
2022-11-05T18:20:53.972Z,16.84
2022-11-05T18:40:44.567Z,16.50
2022-11-05T18:43:15.135Z,16.50
2022-11-05T18:45:45.835Z,16.46
2022-11-05T18:54:08.880Z,16.41
2022-11-05T18:56:45.688Z,16.36
2022-11-05T18:59:35.972Z,16.34
2022-11-05T19:02:03.087Z,16.33
2022-11-05T19:04:31.625Z,16.30
2022-11-05T19:07:04.817Z,16.26
2022-11-05T19:09:34.073Z,16.19
2022-11-05T19:12:04.578Z,16.13
2022-11-05T19:14:33.117Z,16.10
2022-11-05T19:17:02.044Z,16.02
2022-11-05T19:19:30.385Z,15.99
2022-11-05T19:21:59.236Z,15.89
2022-11-05T19:24:27.492Z,15.86
2022-11-05T19:26:55.600Z,15.81
2022-11-05T19:29:25.875Z,15.77
2022-11-05T19:31:59.114Z,15.72
2022-11-05T19:34:46.460Z,15.69
2022-11-05T19:37:14.910Z,15.66
2022-11-05T19:39:44.396Z,15.63
2022-11-05T19:42:13.023Z,15.58
2022-11-05T19:44:43.397Z,15.51
2022-11-05T19:47:12.572Z,15.51
2022-11-05T19:49:51.891Z,15.43
2022-11-05T19:52:20.370Z,15.41
2022-11-05T19:54:49.248Z,15.36
2022-11-05T19:57:17.850Z,15.30
2022-11-05T19:59:47.694Z,15.24
2022-11-05T20:02:17.560Z,15.15
2022-11-05T20:04:46.467Z,15.09
2022-11-05T20:07:15.241Z,15.02
2022-11-05T20:09:43.929Z,14.95
2022-11-05T20:12:13.077Z,14.88
2022-11-05T20:14:42.267Z,14.84
2022-11-05T20:17:20.727Z,14.78
2022-11-05T20:20:14.360Z,14.74
2022-11-05T20:22:44.250Z,14.73
2022-11-05T20:25:15.785Z,14.68
2022-11-05T20:27:48.864Z,14.67
2022-11-05T20:30:24.516Z,14.62
2022-11-05T20:32:57.335Z,14.61
2022-11-05T20:35:26.092Z,14.54
2022-11-05T20:37:58.617Z,14.50
2022-11-05T20:40:27.359Z,14.48
2022-11-05T20:42:56.243Z,14.43
2022-11-05T20:45:25.138Z,14.40
2022-11-05T20:47:53.655Z,14.36
2022-11-05T20:50:23.448Z,14.33
2022-11-05T20:52:53.177Z,14.30
2022-11-05T20:58:02.632Z,14.26
2022-11-05T21:00:31.922Z,14.24
2022-11-05T21:03:00.377Z,14.25
2022-11-05T21:05:35.350Z,14.22
2022-11-05T21:08:04.496Z,14.18
2022-11-05T21:10:33.119Z,14.15
2022-11-05T21:13:01.850Z,14.11
2022-11-05T21:15:31.159Z,14.11
2022-11-05T21:18:00.090Z,14.12
2022-11-05T21:20:31.309Z,14.13
2022-11-05T21:23:00.481Z,14.14
2022-11-05T21:25:28.839Z,14.16
2022-11-05T21:27:57.708Z,14.20
2022-11-05T21:30:26.781Z,14.25
2022-11-05T21:32:55.057Z,14.28
2022-11-05T21:35:23.471Z,14.31
2022-11-05T21:37:53.490Z,14.35
2022-11-05T21:40:22.441Z,14.35
2022-11-05T21:42:50.914Z,14.37
2022-11-05T21:45:19.311Z,14.36
2022-11-05T21:47:47.839Z,14.35
2022-11-05T21:50:21.653Z,14.33
2022-11-05T21:53:07.729Z,14.30
2022-11-05T21:55:55.143Z,14.22
2022-11-05T21:58:43.452Z,14.21
2022-11-05T22:01:14.340Z,14.20
2022-11-05T22:03:45.677Z,14.22
2022-11-05T22:06:14.398Z,14.25
2022-11-05T22:08:47.199Z,14.24
2022-11-05T22:11:17.056Z,14.20
2022-11-05T22:13:48.592Z,14.18
2022-11-05T22:16:16.828Z,14.16
2022-11-05T22:18:45.536Z,14.15
2022-11-05T22:21:18.352Z,14.10
2022-11-05T22:23:46.665Z,14.09
2022-11-05T22:26:16.632Z,14.11
2022-11-05T22:28:44.592Z,14.14
2022-11-05T22:31:16.057Z,14.14
2022-11-05T22:33:44.342Z,14.12
2022-11-05T22:36:13.288Z,14.10
2022-11-05T22:38:41.377Z,14.09
2022-11-05T22:41:10.634Z,14.08
2022-11-05T22:43:40.267Z,14.06
2022-11-05T22:46:11.564Z,14.03
2022-11-05T22:48:41.148Z,14.01
2022-11-05T22:51:11.749Z,14.00
2022-11-05T22:53:40.705Z,13.97
2022-11-05T22:56:11.669Z,13.94
2022-11-05T22:58:42.160Z,13.93
2022-11-05T23:01:12.571Z,13.91
2022-11-05T23:03:43.257Z,13.93
2022-11-05T23:06:37.432Z,13.93
2022-11-05T23:09:30.497Z,13.93
2022-11-05T23:11:59.722Z,13.87
2022-11-05T23:14:30.224Z,13.86
2022-11-05T23:17:15.702Z,13.88
2022-11-05T23:20:02.923Z,13.87
2022-11-05T23:22:50.150Z,13.87
2022-11-05T23:25:24.874Z,13.82
2022-11-05T23:27:57.338Z,13.86
2022-11-05T23:30:29.530Z,13.86
2022-11-05T23:32:57.513Z,13.86
2022-11-05T23:35:39.807Z,13.89
2022-11-05T23:38:25.878Z,13.91
2022-11-05T23:41:11.775Z,13.88
2022-11-05T23:43:57.350Z,13.89
2022-11-05T23:46:44.613Z,13.88
2022-11-05T23:49:16.504Z,13.90
2022-11-05T23:51:45.084Z,13.90
2022-11-05T23:54:13.487Z,13.90
2022-11-05T23:56:42.007Z,13.90
2022-11-05T23:59:11.497Z,13.88
